AirNav   Duncan Aviation - Near you to keep you flying
 
 777 users online  

3SD3 Brown Field Airport
Scenic, South Dakota, USA

GOING TO SCENIC?


FAA INFORMATION EFFECTIVE 01 DECEMBER 2022

Location

FAA Identifier: 3SD3
Lat/Long: 43-48-42.4500N 102-43-11.6400W
43-48.707500N 102-43.194000W
43.8117917,-102.7199000
(estimated)
Elevation: 2780 ft. / 847 m (estimated)
From city: 7 miles WNW of SCENIC, SD
Time zone: UTC -7 (UTC -6 during Daylight Saving Time)
Zip code: 57744

Airport Operations

Airport use: Private use. Permission required prior to landing
Activation date: 05/2004
Control tower: no
ARTCC: DENVER CENTER
FSS: HURON FLIGHT SERVICE STATION
Attendance: UNATNDD
Segmented circle: no

Nearby radio navigation aids

VOR radial/distance  VOR name  Freq  Var
RAPr115/16.0RAPID CITY VORTAC112.3013E

Airport Services

Runway Information

Runway 18/36

Dimensions: 1600 x 45 ft. / 488 x 14 m
Surface: turf
RUNWAY 18  RUNWAY 36
Traffic pattern: leftleft

Airport Ownership and Management from official FAA records

Ownership: Privately-owned
Owner: PAT BROWN
4832 TANAGER COURT
RAPID CITY, SD 57702
Phone 605-343-8289
Manager: PAT BROWN
4832 TANAGER COURT
RAPID CITY, SD 57702
Phone 605-343-8289

Additional Remarks

25 FT POWERLINE 250 FT W, 50 FT GRAIN BIN 300 FT W. AND 25 FT BLDGS 200 FT NW OF RY.
OWNER DESIRES ARPT NOT BE CHARTED.
FOR CD CTC ELLSWORTH APCH AT 605-385-6198, WHEN APCH CLSD CTC DENVER ARTCC AT 303-651-4257.

Instrument Procedures

There are no published instrument procedures at 3SD3.

Some nearby airports with instrument procedures:

KRAP - Rapid City Regional Airport (20 nm NW)
KRCA - Ellsworth Air Force Base (26 nm NW)
KHSR - Hot Springs Municipal Airport (39 nm SW)
49B - Sturgis Municipal Airport (46 nm NW)
KIEN - Pine Ridge Airport (48 nm S)
 
Loc | Ops | Rwys | IFR | FBO | Links
Com | Nav | Svcs | Stats | Notes

Bismarck Aero Center
AirBoss

 
Area around 3SD3 (Brown Field Airport)
 
Road maps at: MapQuest Bing Google
 
Aerial photo
No photo
 
Sectional chart

 
Airport distance calculator
Flying to Brown Field Airport? Find the distance to fly.

From to 3SD3

Sunrise and sunset
Times for 01-Dec-2022
 Local
(UTC-7)
 Zulu
(UTC)
Morning civil twilight06:3413:34
Sunrise07:0614:06
Sunset16:1423:14
Evening civil twilight16:4623:46

Current date and time
Zulu (UTC)  02-Dec-2022 04:42:12
Local (UTC-7)  01-Dec-2022 21:42:12
 
METAR
KRAP 
20nm NW 
020352Z 18008KT 10SM CLR 08/M06 A2949 RMK AO2 SLP999 T00781056
KRCA 
25nm NW 
020355Z AUTO 16006KT 10SM CLR 06/M07 A2945 RMK AO2 SLP984 T00631070 $
KCUT 
39nm W 
020353Z AUTO 24014G28KT 10SM CLR 05/M08 A2954 RMK AO2 PK WND 25030/0308 SLP995 T00501083
TAF
KRAP 
20nm NW 
011720Z 0118/0218 15009KT P6SM SCT120 OVC250 FM020800 23011KT P6SM SCT240 WS020/26040KT FM021000 32012KT P6SM SCT220 WS020/26040KT FM021200 34023KT P6SM BKN090 FM021500 34030G45KT P6SM -SHSN OVC027
KRCA 
25nm NW 
020300Z 0203/0309 18012KT 9999 SCT120 520012 QNH2940INS BECMG 0212/0213 34020G35KT 9999 BKN060 OVC080 530029 QNH2950INS BECMG 0214/0215 33025G40KT 6000 -SN SCT040 BKN060 650609 530049 QNH2962INS BECMG 0217/0218 32015G25KT 1600 BLSN FEW020 BKN030 650309 530059 QNH2978INS BECMG 0220/0221 32030KT 9999 NSW FEW110 530013 QNH2989INS TX06/0211Z TNM12/0302Z
NOTAMs
Click for the latest NOTAMs
NOTAMs are issued by the DoD/FAA and will open in a separate window not controlled by AirNav.

 

 
 

Would you like to see your business listed on this page?

 If your business provides an interesting product or service to pilots, flight crews, aircraft, or users of the Brown Field Airport, you should consider listing it here.  To start the listing process, click on the button below
 
Add a business
 

Other Pages about Brown Field Airport

Update a link
 
Copyright © AirNav, LLC. All rights reserved. Privacy Policy  Contact